sensor_id;sensor_type;location;lat;lon;timestamp;P1;durP1;ratioP1;P2;durP2;ratioP2
44532;SDS011;48673;53.016;-2.258;2022-07-23T00:00:44;29.95;;;19.85;;
44532;SDS011;48673;53.016;-2.258;2022-07-23T00:05:42;33.42;;;18.15;;
44532;SDS011;48673;53.016;-2.258;2022-07-23T00:08:10;30.02;;;18.10;;
44532;SDS011;48673;53.016;-2.258;2022-07-23T00:10:40;35.30;;;18.73;;
44532;SDS011;48673;53.016;-2.258;2022-07-23T00:13:09;33.83;;;20.50;;
44532;SDS011;48673;53.016;-2.258;2022-07-23T00:15:37;33.00;;;20.17;;
44532;SDS011;48673;53.016;-2.258;2022-07-23T00:18:04;41.47;;;21.63;;
44532;SDS011;48673;53.016;-2.258;2022-07-23T00:20:32;29.48;;;21.17;;
44532;SDS011;48673;53.016;-2.258;2022-07-23T00:23:00;33.97;;;20.42;;
44532;SDS011;48673;53.016;-2.258;2022-07-23T00:25:28;30.95;;;20.05;;
44532;SDS011;48673;53.016;-2.258;2022-07-23T00:27:58;36.67;;;20.52;;
44532;SDS011;48673;53.016;-2.258;2022-07-23T00:30:27;31.27;;;20.88;;
44532;SDS011;48673;53.016;-2.258;2022-07-23T00:33:00;30.10;;;18.83;;
44532;SDS011;48673;53.016;-2.258;2022-07-23T00:35:31;37.92;;;22.52;;
44532;SDS011;48673;53.016;-2.258;2022-07-23T00:38:02;28.23;;;19.35;;
44532;SDS011;48673;53.016;-2.258;2022-07-23T00:40:31;29.10;;;19.05;;
44532;SDS011;48673;53.016;-2.258;2022-07-23T00:42:59;32.95;;;20.42;;
44532;SDS011;48673;53.016;-2.258;2022-07-23T00:45:27;32.83;;;21.40;;
44532;SDS011;48673;53.016;-2.258;2022-07-23T00:47:55;30.23;;;20.52;;
44532;SDS011;48673;53.016;-2.258;2022-07-23T00:50:23;34.83;;;22.13;;
44532;SDS011;48673;53.016;-2.258;2022-07-23T00:52:51;38.05;;;23.42;;
44532;SDS011;48673;53.016;-2.258;2022-07-23T00:55:19;34.83;;;21.63;;
44532;SDS011;48673;53.016;-2.258;2022-07-23T00:57:47;32.75;;;22.48;;
44532;SDS011;48673;53.016;-2.258;2022-07-23T01:00:15;34.38;;;22.10;;
44532;SDS011;48673;53.016;-2.258;2022-07-23T01:02:43;33.88;;;22.27;;
44532;SDS011;48673;53.016;-2.258;2022-07-23T01:05:14;37.72;;;23.40;;
44532;SDS011;48673;53.016;-2.258;2022-07-23T01:07:43;34.80;;;22.42;;
44532;SDS011;48673;53.016;-2.258;2022-07-23T01:10:12;37.13;;;23.50;;
44532;SDS011;48673;53.016;-2.258;2022-07-23T01:15:29;35.90;;;23.02;;
44532;SDS011;48673;53.016;-2.258;2022-07-23T01:20:26;39.95;;;23.10;;
44532;SDS011;48673;53.016;-2.258;2022-07-23T01:22:54;41.53;;;24.42;;
44532;SDS011;48673;53.016;-2.258;2022-07-23T01:25:23;38.85;;;26.00;;
44532;SDS011;48673;53.016;-2.258;2022-07-23T01:27:57;50.63;;;24.98;;
44532;SDS011;48673;53.016;-2.258;2022-07-23T01:30:25;45.53;;;27.58;;
44532;SDS011;48673;53.016;-2.258;2022-07-23T01:32:54;55.53;;;31.35;;
44532;SDS011;48673;53.016;-2.258;2022-07-23T01:35:22;52.67;;;34.33;;
44532;SDS011;48673;53.016;-2.258;2022-07-23T01:37:52;52.08;;;32.03;;
44532;SDS011;48673;53.016;-2.258;2022-07-23T01:42:51;45.15;;;28.83;;
44532;SDS011;48673;53.016;-2.258;2022-07-23T01:45:19;39.35;;;25.95;;
44532;SDS011;48673;53.016;-2.258;2022-07-23T01:47:50;37.53;;;26.35;;
44532;SDS011;48673;53.016;-2.258;2022-07-23T01:50:18;39.33;;;26.83;;
44532;SDS011;48673;53.016;-2.258;2022-07-23T01:53:04;40.17;;;27.08;;
44532;SDS011;48673;53.016;-2.258;2022-07-23T01:55:35;39.13;;;26.00;;
44532;SDS011;48673;53.016;-2.258;2022-07-23T01:58:03;41.38;;;28.48;;
44532;SDS011;48673;53.016;-2.258;2022-07-23T02:00:33;42.47;;;27.67;;
44532;SDS011;48673;53.016;-2.258;2022-07-23T02:03:01;44.20;;;29.37;;
44532;SDS011;48673;53.016;-2.258;2022-07-23T02:05:29;41.23;;;28.27;;
44532;SDS011;48673;53.016;-2.258;2022-07-23T02:07:59;42.80;;;28.60;;
44532;SDS011;48673;53.016;-2.258;2022-07-23T02:10:31;43.53;;;27.40;;
44532;SDS011;48673;53.016;-2.258;2022-07-23T02:13:03;43.85;;;29.13;;
44532;SDS011;48673;53.016;-2.258;2022-07-23T02:15:30;43.63;;;26.75;;
44532;SDS011;48673;53.016;-2.258;2022-07-23T02:17:59;38.10;;;27.80;;
44532;SDS011;48673;53.016;-2.258;2022-07-23T02:20:26;51.20;;;31.27;;
44532;SDS011;48673;53.016;-2.258;2022-07-23T02:22:54;49.92;;;30.17;;
44532;SDS011;48673;53.016;-2.258;2022-07-23T02:25:22;50.25;;;30.95;;
44532;SDS011;48673;53.016;-2.258;2022-07-23T02:27:55;48.08;;;30.30;;
44532;SDS011;48673;53.016;-2.258;2022-07-23T02:30:23;58.50;;;30.17;;
44532;SDS011;48673;53.016;-2.258;2022-07-23T02:32:51;52.88;;;32.03;;
44532;SDS011;48673;53.016;-2.258;2022-07-23T02:35:19;54.65;;;29.15;;
44532;SDS011;48673;53.016;-2.258;2022-07-23T02:37:47;50.88;;;30.35;;
44532;SDS011;48673;53.016;-2.258;2022-07-23T02:40:17;47.75;;;29.33;;
44532;SDS011;48673;53.016;-2.258;2022-07-23T02:42:45;49.85;;;28.45;;
44532;SDS011;48673;53.016;-2.258;2022-07-23T02:45:13;49.40;;;28.05;;
44532;SDS011;48673;53.016;-2.258;2022-07-23T02:47:42;50.67;;;28.98;;
44532;SDS011;48673;53.016;-2.258;2022-07-23T02:50:10;56.38;;;28.98;;
44532;SDS011;48673;53.016;-2.258;2022-07-23T02:52:39;47.72;;;30.23;;
44532;SDS011;48673;53.016;-2.258;2022-07-23T02:55:07;54.42;;;29.25;;
44532;SDS011;48673;53.016;-2.258;2022-07-23T02:57:35;54.80;;;30.87;;
44532;SDS011;48673;53.016;-2.258;2022-07-23T03:00:03;53.17;;;31.85;;
44532;SDS011;48673;53.016;-2.258;2022-07-23T03:02:33;53.70;;;32.10;;
44532;SDS011;48673;53.016;-2.258;2022-07-23T03:05:01;58.63;;;33.93;;
44532;SDS011;48673;53.016;-2.258;2022-07-23T03:07:29;63.70;;;36.63;;
44532;SDS011;48673;53.016;-2.258;2022-07-23T03:09:57;58.05;;;33.63;;
44532;SDS011;48673;53.016;-2.258;2022-07-23T03:12:24;61.65;;;35.03;;
44532;SDS011;48673;53.016;-2.258;2022-07-23T03:14:52;60.05;;;32.80;;
44532;SDS011;48673;53.016;-2.258;2022-07-23T03:17:21;53.58;;;33.97;;
44532;SDS011;48673;53.016;-2.258;2022-07-23T03:19:49;53.85;;;33.10;;
44532;SDS011;48673;53.016;-2.258;2022-07-23T03:22:17;55.75;;;31.40;;
44532;SDS011;48673;53.016;-2.258;2022-07-23T03:24:44;55.40;;;32.65;;
44532;SDS011;48673;53.016;-2.258;2022-07-23T03:27:28;58.33;;;31.42;;
44532;SDS011;48673;53.016;-2.258;2022-07-23T03:29:57;52.85;;;29.52;;
44532;SDS011;48673;53.016;-2.258;2022-07-23T03:32:26;57.35;;;31.52;;
44532;SDS011;48673;53.016;-2.258;2022-07-23T03:34:55;48.25;;;29.10;;
44532;SDS011;48673;53.016;-2.258;2022-07-23T03:37:23;55.08;;;30.58;;
44532;SDS011;48673;53.016;-2.258;2022-07-23T03:39:52;53.47;;;30.90;;
44532;SDS011;48673;53.016;-2.258;2022-07-23T03:42:19;51.10;;;30.25;;
44532;SDS011;48673;53.016;-2.258;2022-07-23T03:44:47;53.55;;;28.52;;
44532;SDS011;48673;53.016;-2.258;2022-07-23T03:47:15;51.67;;;30.88;;
44532;SDS011;48673;53.016;-2.258;2022-07-23T03:49:44;52.10;;;30.85;;
44532;SDS011;48673;53.016;-2.258;2022-07-23T03:52:12;54.20;;;30.95;;
44532;SDS011;48673;53.016;-2.258;2022-07-23T03:54:39;51.58;;;32.38;;
44532;SDS011;48673;53.016;-2.258;2022-07-23T03:57:08;51.67;;;30.47;;
44532;SDS011;48673;53.016;-2.258;2022-07-23T03:59:36;56.17;;;30.50;;
44532;SDS011;48673;53.016;-2.258;2022-07-23T04:02:04;53.55;;;33.00;;
44532;SDS011;48673;53.016;-2.258;2022-07-23T04:04:32;52.70;;;31.20;;
44532;SDS011;48673;53.016;-2.258;2022-07-23T04:07:00;50.30;;;29.30;;
44532;SDS011;48673;53.016;-2.258;2022-07-23T04:09:29;46.42;;;28.70;;
44532;SDS011;48673;53.016;-2.258;2022-07-23T04:11:57;44.95;;;27.58;;
44532;SDS011;48673;53.016;-2.258;2022-07-23T04:14:25;44.40;;;27.70;;
44532;SDS011;48673;53.016;-2.258;2022-07-23T04:16:53;45.15;;;27.40;;
44532;SDS011;48673;53.016;-2.258;2022-07-23T04:19:21;49.15;;;26.52;;
44532;SDS011;48673;53.016;-2.258;2022-07-23T04:21:59;46.00;;;25.93;;
44532;SDS011;48673;53.016;-2.258;2022-07-23T04:24:28;40.85;;;25.98;;
44532;SDS011;48673;53.016;-2.258;2022-07-23T04:26:56;45.15;;;26.30;;
44532;SDS011;48673;53.016;-2.258;2022-07-23T04:29:24;47.13;;;26.83;;
44532;SDS011;48673;53.016;-2.258;2022-07-23T04:31:52;45.50;;;26.80;;
44532;SDS011;48673;53.016;-2.258;2022-07-23T04:34:20;46.65;;;24.85;;
44532;SDS011;48673;53.016;-2.258;2022-07-23T04:36:49;46.63;;;24.88;;
44532;SDS011;48673;53.016;-2.258;2022-07-23T04:39:17;45.33;;;25.05;;
44532;SDS011;48673;53.016;-2.258;2022-07-23T04:41:45;54.10;;;27.75;;
44532;SDS011;48673;53.016;-2.258;2022-07-23T04:44:14;47.50;;;25.90;;
44532;SDS011;48673;53.016;-2.258;2022-07-23T04:46:42;48.22;;;26.50;;
44532;SDS011;48673;53.016;-2.258;2022-07-23T04:49:10;48.35;;;26.05;;
44532;SDS011;48673;53.016;-2.258;2022-07-23T04:51:38;52.10;;;29.15;;
44532;SDS011;48673;53.016;-2.258;2022-07-23T04:54:06;49.83;;;27.80;;
44532;SDS011;48673;53.016;-2.258;2022-07-23T04:56:34;47.47;;;27.02;;
44532;SDS011;48673;53.016;-2.258;2022-07-23T04:59:02;51.42;;;28.42;;
44532;SDS011;48673;53.016;-2.258;2022-07-23T05:01:31;45.33;;;27.30;;
44532;SDS011;48673;53.016;-2.258;2022-07-23T05:03:59;49.30;;;26.25;;
44532;SDS011;48673;53.016;-2.258;2022-07-23T05:06:31;50.97;;;26.02;;
44532;SDS011;48673;53.016;-2.258;2022-07-23T05:08:59;49.05;;;25.85;;
44532;SDS011;48673;53.016;-2.258;2022-07-23T05:11:29;44.60;;;25.92;;
44532;SDS011;48673;53.016;-2.258;2022-07-23T05:13:56;47.80;;;26.00;;
44532;SDS011;48673;53.016;-2.258;2022-07-23T05:16:24;45.58;;;25.23;;
44532;SDS011;48673;53.016;-2.258;2022-07-23T05:18:57;51.10;;;24.60;;
44532;SDS011;48673;53.016;-2.258;2022-07-23T05:21:26;43.95;;;25.75;;
44532;SDS011;48673;53.016;-2.258;2022-07-23T05:23:54;50.75;;;27.00;;
44532;SDS011;48673;53.016;-2.258;2022-07-23T05:26:22;50.17;;;25.73;;
44532;SDS011;48673;53.016;-2.258;2022-07-23T05:28:50;36.10;;;20.00;;
44532;SDS011;48673;53.016;-2.258;2022-07-23T05:31:20;50.17;;;27.00;;
44532;SDS011;48673;53.016;-2.258;2022-07-23T05:33:48;45.78;;;26.98;;
44532;SDS011;48673;53.016;-2.258;2022-07-23T05:36:15;42.35;;;25.85;;
44532;SDS011;48673;53.016;-2.258;2022-07-23T05:38:50;44.65;;;23.80;;
44532;SDS011;48673;53.016;-2.258;2022-07-23T05:41:18;35.42;;;21.35;;
44532;SDS011;48673;53.016;-2.258;2022-07-23T05:43:46;33.55;;;20.17;;
44532;SDS011;48673;53.016;-2.258;2022-07-23T05:46:14;38.90;;;21.08;;
44532;SDS011;48673;53.016;-2.258;2022-07-23T05:48:46;35.17;;;20.23;;
44532;SDS011;48673;53.016;-2.258;2022-07-23T05:51:35;33.80;;;19.67;;
44532;SDS011;48673;53.016;-2.258;2022-07-23T05:54:05;37.58;;;20.15;;
44532;SDS011;48673;53.016;-2.258;2022-07-23T05:56:37;34.92;;;20.30;;
44532;SDS011;48673;53.016;-2.258;2022-07-23T05:59:05;40.35;;;21.05;;
44532;SDS011;48673;53.016;-2.258;2022-07-23T06:01:36;30.85;;;20.10;;
44532;SDS011;48673;53.016;-2.258;2022-07-23T06:04:10;40.05;;;21.48;;
44532;SDS011;48673;53.016;-2.258;2022-07-23T06:06:44;33.53;;;21.50;;
44532;SDS011;48673;53.016;-2.258;2022-07-23T06:09:12;51.92;;;24.10;;
44532;SDS011;48673;53.016;-2.258;2022-07-23T06:11:41;38.45;;;21.05;;
44532;SDS011;48673;53.016;-2.258;2022-07-23T06:14:09;45.60;;;24.83;;
44532;SDS011;48673;53.016;-2.258;2022-07-23T06:16:48;38.50;;;21.25;;
44532;SDS011;48673;53.016;-2.258;2022-07-23T06:19:16;40.65;;;22.77;;
44532;SDS011;48673;53.016;-2.258;2022-07-23T06:21:45;46.50;;;23.40;;
44532;SDS011;48673;53.016;-2.258;2022-07-23T06:24:15;43.25;;;24.80;;
44532;SDS011;48673;53.016;-2.258;2022-07-23T06:26:43;37.38;;;22.88;;
44532;SDS011;48673;53.016;-2.258;2022-07-23T06:29:12;36.72;;;24.13;;
44532;SDS011;48673;53.016;-2.258;2022-07-23T06:31:43;48.40;;;25.58;;
44532;SDS011;48673;53.016;-2.258;2022-07-23T06:34:14;38.60;;;24.13;;
44532;SDS011;48673;53.016;-2.258;2022-07-23T06:36:45;42.95;;;23.10;;
44532;SDS011;48673;53.016;-2.258;2022-07-23T06:39:17;38.88;;;23.08;;
44532;SDS011;48673;53.016;-2.258;2022-07-23T06:41:48;35.80;;;23.30;;
44532;SDS011;48673;53.016;-2.258;2022-07-23T06:44:39;33.83;;;22.00;;
44532;SDS011;48673;53.016;-2.258;2022-07-23T06:47:08;41.63;;;21.83;;
44532;SDS011;48673;53.016;-2.258;2022-07-23T06:49:41;37.88;;;21.10;;
44532;SDS011;48673;53.016;-2.258;2022-07-23T06:52:10;46.70;;;22.40;;
44532;SDS011;48673;53.016;-2.258;2022-07-23T06:54:39;29.35;;;20.70;;
44532;SDS011;48673;53.016;-2.258;2022-07-23T06:57:08;36.75;;;21.65;;
44532;SDS011;48673;53.016;-2.258;2022-07-23T06:59:37;38.40;;;20.88;;
44532;SDS011;48673;53.016;-2.258;2022-07-23T07:02:10;29.60;;;18.75;;
44532;SDS011;48673;53.016;-2.258;2022-07-23T07:04:38;30.67;;;20.35;;
44532;SDS011;48673;53.016;-2.258;2022-07-23T07:07:07;35.17;;;20.25;;
44532;SDS011;48673;53.016;-2.258;2022-07-23T07:09:37;33.65;;;19.67;;
44532;SDS011;48673;53.016;-2.258;2022-07-23T07:12:05;31.13;;;18.27;;
44532;SDS011;48673;53.016;-2.258;2022-07-23T07:14:35;29.05;;;19.33;;
44532;SDS011;48673;53.016;-2.258;2022-07-23T07:17:04;30.23;;;17.60;;
44532;SDS011;48673;53.016;-2.258;2022-07-23T07:19:33;26.63;;;18.05;;
44532;SDS011;48673;53.016;-2.258;2022-07-23T07:22:03;32.13;;;18.58;;
44532;SDS011;48673;53.016;-2.258;2022-07-23T07:24:31;29.65;;;19.08;;
44532;SDS011;48673;53.016;-2.258;2022-07-23T07:27:04;25.85;;;15.75;;
44532;SDS011;48673;53.016;-2.258;2022-07-23T07:29:36;23.60;;;16.00;;
44532;SDS011;48673;53.016;-2.258;2022-07-23T07:32:06;27.25;;;15.05;;
44532;SDS011;48673;53.016;-2.258;2022-07-23T07:34:34;25.40;;;15.10;;
44532;SDS011;48673;53.016;-2.258;2022-07-23T07:37:02;21.80;;;15.95;;
44532;SDS011;48673;53.016;-2.258;2022-07-23T07:41:59;20.25;;;13.52;;
44532;SDS011;48673;53.016;-2.258;2022-07-23T07:44:28;18.80;;;13.35;;
44532;SDS011;48673;53.016;-2.258;2022-07-23T07:46:57;21.65;;;13.55;;
44532;SDS011;48673;53.016;-2.258;2022-07-23T07:49:26;24.42;;;12.95;;
44532;SDS011;48673;53.016;-2.258;2022-07-23T07:52:02;19.02;;;11.50;;
44532;SDS011;48673;53.016;-2.258;2022-07-23T07:54:30;17.23;;;11.95;;
44532;SDS011;48673;53.016;-2.258;2022-07-23T07:56:59;21.55;;;12.13;;
44532;SDS011;48673;53.016;-2.258;2022-07-23T07:59:28;23.63;;;11.32;;
44532;SDS011;48673;53.016;-2.258;2022-07-23T08:02:00;22.00;;;12.13;;
44532;SDS011;48673;53.016;-2.258;2022-07-23T08:04:28;19.33;;;11.43;;
44532;SDS011;48673;53.016;-2.258;2022-07-23T08:06:56;19.33;;;10.90;;
44532;SDS011;48673;53.016;-2.258;2022-07-23T08:09:24;20.27;;;11.88;;
44532;SDS011;48673;53.016;-2.258;2022-07-23T08:11:52;20.63;;;10.52;;
44532;SDS011;48673;53.016;-2.258;2022-07-23T08:14:20;18.70;;;8.88;;
44532;SDS011;48673;53.016;-2.258;2022-07-23T08:16:48;12.55;;;9.05;;
44532;SDS011;48673;53.016;-2.258;2022-07-23T08:19:38;12.43;;;7.47;;
44532;SDS011;48673;53.016;-2.258;2022-07-23T08:24:35;11.15;;;6.07;;
44532;SDS011;48673;53.016;-2.258;2022-07-23T08:27:03;17.70;;;7.80;;
44532;SDS011;48673;53.016;-2.258;2022-07-23T08:29:32;11.68;;;7.25;;
44532;SDS011;48673;53.016;-2.258;2022-07-23T08:32:00;9.68;;;5.10;;
44532;SDS011;48673;53.016;-2.258;2022-07-23T08:34:50;10.18;;;5.32;;
44532;SDS011;48673;53.016;-2.258;2022-07-23T08:37:19;8.65;;;4.88;;
44532;SDS011;48673;53.016;-2.258;2022-07-23T08:39:47;11.18;;;4.45;;
44532;SDS011;48673;53.016;-2.258;2022-07-23T08:42:15;11.03;;;4.30;;
44532;SDS011;48673;53.016;-2.258;2022-07-23T08:44:44;8.30;;;4.68;;
44532;SDS011;48673;53.016;-2.258;2022-07-23T08:47:14;8.20;;;4.45;;
44532;SDS011;48673;53.016;-2.258;2022-07-23T08:49:44;6.63;;;3.20;;
44532;SDS011;48673;53.016;-2.258;2022-07-23T08:52:15;11.85;;;2.97;;
44532;SDS011;48673;53.016;-2.258;2022-07-23T08:54:43;6.27;;;2.20;;
44532;SDS011;48673;53.016;-2.258;2022-07-23T08:57:12;8.98;;;2.67;;
44532;SDS011;48673;53.016;-2.258;2022-07-23T08:59:44;5.15;;;2.30;;
44532;SDS011;48673;53.016;-2.258;2022-07-23T09:02:13;3.22;;;1.60;;
44532;SDS011;48673;53.016;-2.258;2022-07-23T09:04:41;3.45;;;2.10;;
44532;SDS011;48673;53.016;-2.258;2022-07-23T09:07:09;4.95;;;2.20;;
44532;SDS011;48673;53.016;-2.258;2022-07-23T09:09:37;6.60;;;1.42;;
44532;SDS011;48673;53.016;-2.258;2022-07-23T09:12:06;3.90;;;2.10;;
44532;SDS011;48673;53.016;-2.258;2022-07-23T09:14:45;5.50;;;1.65;;
44532;SDS011;48673;53.016;-2.258;2022-07-23T09:17:16;5.43;;;2.30;;
44532;SDS011;48673;53.016;-2.258;2022-07-23T09:19:45;3.17;;;2.25;;
44532;SDS011;48673;53.016;-2.258;2022-07-23T09:30:22;6.80;;;2.45;;
44532;SDS011;48673;53.016;-2.258;2022-07-23T09:33:11;5.45;;;1.88;;
44532;SDS011;48673;53.016;-2.258;2022-07-23T09:35:45;5.80;;;1.75;;
44532;SDS011;48673;53.016;-2.258;2022-07-23T09:38:21;3.35;;;2.05;;
44532;SDS011;48673;53.016;-2.258;2022-07-23T09:43:37;7.55;;;2.17;;
44532;SDS011;48673;53.016;-2.258;2022-07-23T09:46:25;3.03;;;1.23;;
44532;SDS011;48673;53.016;-2.258;2022-07-23T09:48:54;5.88;;;2.30;;
44532;SDS011;48673;53.016;-2.258;2022-07-23T09:51:26;8.35;;;1.88;;
44532;SDS011;48673;53.016;-2.258;2022-07-23T09:54:05;6.75;;;2.20;;
44532;SDS011;48673;53.016;-2.258;2022-07-23T09:56:47;7.53;;;1.70;;
44532;SDS011;48673;53.016;-2.258;2022-07-23T09:59:16;4.07;;;1.98;;
44532;SDS011;48673;53.016;-2.258;2022-07-23T10:01:45;2.88;;;2.17;;
44532;SDS011;48673;53.016;-2.258;2022-07-23T10:04:13;4.77;;;2.00;;
44532;SDS011;48673;53.016;-2.258;2022-07-23T10:07:11;3.70;;;2.28;;
44532;SDS011;48673;53.016;-2.258;2022-07-23T10:10:02;5.18;;;1.70;;
44532;SDS011;48673;53.016;-2.258;2022-07-23T10:12:57;8.45;;;1.90;;
44532;SDS011;48673;53.016;-2.258;2022-07-23T10:15:29;3.80;;;2.17;;
44532;SDS011;48673;53.016;-2.258;2022-07-23T10:17:57;4.30;;;2.53;;
44532;SDS011;48673;53.016;-2.258;2022-07-23T10:20:25;9.23;;;2.90;;
44532;SDS011;48673;53.016;-2.258;2022-07-23T10:23:15;6.80;;;2.47;;
44532;SDS011;48673;53.016;-2.258;2022-07-23T10:28:58;5.22;;;2.97;;
44532;SDS011;48673;53.016;-2.258;2022-07-23T10:37:12;8.23;;;3.30;;
44532;SDS011;48673;53.016;-2.258;2022-07-23T10:40:08;4.07;;;2.70;;
44532;SDS011;48673;53.016;-2.258;2022-07-23T10:42:36;5.57;;;2.80;;
44532;SDS011;48673;53.016;-2.258;2022-07-23T10:53:59;8.82;;;3.22;;
44532;SDS011;48673;53.016;-2.258;2022-07-23T10:59:30;9.82;;;2.72;;
44532;SDS011;48673;53.016;-2.258;2022-07-23T11:04:50;8.77;;;3.30;;
44532;SDS011;48673;53.016;-2.258;2022-07-23T11:07:19;6.22;;;3.38;;
44532;SDS011;48673;53.016;-2.258;2022-07-23T11:09:48;7.25;;;3.03;;
44532;SDS011;48673;53.016;-2.258;2022-07-23T11:22:40;8.35;;;2.97;;
44532;SDS011;48673;53.016;-2.258;2022-07-23T11:27:50;5.00;;;2.22;;
44532;SDS011;48673;53.016;-2.258;2022-07-23T11:35:36;4.35;;;2.85;;
44532;SDS011;48673;53.016;-2.258;2022-07-23T11:38:14;8.30;;;2.50;;
44532;SDS011;48673;53.016;-2.258;2022-07-23T11:40:50;5.22;;;2.60;;
44532;SDS011;48673;53.016;-2.258;2022-07-23T11:43:25;5.05;;;3.08;;
44532;SDS011;48673;53.016;-2.258;2022-07-23T11:45:54;7.40;;;2.70;;
44532;SDS011;48673;53.016;-2.258;2022-07-23T11:48:27;5.95;;;2.45;;
44532;SDS011;48673;53.016;-2.258;2022-07-23T11:50:56;6.57;;;2.50;;
44532;SDS011;48673;53.016;-2.258;2022-07-23T11:53:26;8.77;;;2.72;;
44532;SDS011;48673;53.016;-2.258;2022-07-23T11:55:53;3.75;;;2.72;;
44532;SDS011;48673;53.016;-2.258;2022-07-23T11:58:29;3.67;;;1.80;;
44532;SDS011;48673;53.016;-2.258;2022-07-23T12:03:27;4.05;;;2.60;;
44532;SDS011;48673;53.016;-2.258;2022-07-23T12:05:56;10.17;;;2.83;;
44532;SDS011;48673;53.016;-2.258;2022-07-23T12:08:24;7.35;;;3.35;;
44532;SDS011;48673;53.016;-2.258;2022-07-23T12:10:52;6.65;;;3.08;;
44532;SDS011;48673;53.016;-2.258;2022-07-23T12:13:20;6.03;;;3.08;;
44532;SDS011;48673;53.016;-2.258;2022-07-23T12:15:50;4.30;;;3.38;;
44532;SDS011;48673;53.016;-2.258;2022-07-23T12:18:20;7.30;;;4.28;;
44532;SDS011;48673;53.016;-2.258;2022-07-23T12:20:57;9.10;;;3.22;;
44532;SDS011;48673;53.016;-2.258;2022-07-23T12:23:30;6.00;;;3.58;;
44532;SDS011;48673;53.016;-2.258;2022-07-23T12:26:00;5.68;;;3.45;;
44532;SDS011;48673;53.016;-2.258;2022-07-23T12:28:31;6.63;;;3.60;;
44532;SDS011;48673;53.016;-2.258;2022-07-23T12:31:00;6.18;;;3.92;;
44532;SDS011;48673;53.016;-2.258;2022-07-23T12:33:33;7.45;;;3.55;;
44532;SDS011;48673;53.016;-2.258;2022-07-23T12:36:04;6.78;;;3.88;;
44532;SDS011;48673;53.016;-2.258;2022-07-23T12:38:58;8.70;;;3.72;;
44532;SDS011;48673;53.016;-2.258;2022-07-23T12:41:24;12.30;;;3.40;;
44532;SDS011;48673;53.016;-2.258;2022-07-23T12:43:52;7.75;;;3.42;;
44532;SDS011;48673;53.016;-2.258;2022-07-23T12:46:20;6.60;;;4.70;;
44532;SDS011;48673;53.016;-2.258;2022-07-23T12:51:27;5.82;;;4.28;;
44532;SDS011;48673;53.016;-2.258;2022-07-23T12:54:06;5.22;;;4.05;;
44532;SDS011;48673;53.016;-2.258;2022-07-23T12:59:15;6.97;;;4.50;;
44532;SDS011;48673;53.016;-2.258;2022-07-23T13:01:53;6.35;;;3.78;;
44532;SDS011;48673;53.016;-2.258;2022-07-23T13:04:25;5.38;;;4.32;;
44532;SDS011;48673;53.016;-2.258;2022-07-23T13:09:27;7.75;;;4.50;;
44532;SDS011;48673;53.016;-2.258;2022-07-23T13:12:17;6.28;;;4.30;;
44532;SDS011;48673;53.016;-2.258;2022-07-23T13:14:47;5.80;;;4.40;;
44532;SDS011;48673;53.016;-2.258;2022-07-23T13:17:15;10.13;;;4.60;;
44532;SDS011;48673;53.016;-2.258;2022-07-23T13:19:46;10.40;;;3.55;;
44532;SDS011;48673;53.016;-2.258;2022-07-23T13:22:15;11.82;;;4.28;;
44532;SDS011;48673;53.016;-2.258;2022-07-23T13:24:43;5.87;;;3.73;;
44532;SDS011;48673;53.016;-2.258;2022-07-23T13:27:14;6.28;;;4.22;;
44532;SDS011;48673;53.016;-2.258;2022-07-23T13:29:43;5.47;;;3.83;;
44532;SDS011;48673;53.016;-2.258;2022-07-23T13:32:12;11.82;;;4.65;;
44532;SDS011;48673;53.016;-2.258;2022-07-23T13:34:41;13.90;;;5.45;;
44532;SDS011;48673;53.016;-2.258;2022-07-23T13:37:11;6.22;;;4.32;;
44532;SDS011;48673;53.016;-2.258;2022-07-23T13:39:41;6.88;;;4.03;;
44532;SDS011;48673;53.016;-2.258;2022-07-23T13:42:09;12.63;;;3.60;;
44532;SDS011;48673;53.016;-2.258;2022-07-23T13:44:37;14.30;;;4.85;;
44532;SDS011;48673;53.016;-2.258;2022-07-23T13:47:06;6.28;;;3.75;;
44532;SDS011;48673;53.016;-2.258;2022-07-23T13:49:33;5.35;;;3.67;;
44532;SDS011;48673;53.016;-2.258;2022-07-23T13:52:03;7.13;;;4.32;;
44532;SDS011;48673;53.016;-2.258;2022-07-23T13:54:34;4.72;;;4.15;;
44532;SDS011;48673;53.016;-2.258;2022-07-23T13:57:02;5.05;;;3.72;;
44532;SDS011;48673;53.016;-2.258;2022-07-23T13:59:31;7.85;;;3.80;;
44532;SDS011;48673;53.016;-2.258;2022-07-23T14:02:04;10.27;;;3.65;;
44532;SDS011;48673;53.016;-2.258;2022-07-23T14:04:47;5.07;;;3.88;;
44532;SDS011;48673;53.016;-2.258;2022-07-23T14:07:16;5.30;;;3.47;;
44532;SDS011;48673;53.016;-2.258;2022-07-23T14:09:46;8.02;;;3.65;;
44532;SDS011;48673;53.016;-2.258;2022-07-23T14:12:15;5.27;;;4.13;;
44532;SDS011;48673;53.016;-2.258;2022-07-23T14:14:44;7.88;;;3.85;;
44532;SDS011;48673;53.016;-2.258;2022-07-23T14:17:12;5.82;;;3.92;;
44532;SDS011;48673;53.016;-2.258;2022-07-23T14:22:10;6.70;;;4.13;;
44532;SDS011;48673;53.016;-2.258;2022-07-23T14:27:06;6.38;;;3.70;;
44532;SDS011;48673;53.016;-2.258;2022-07-23T14:29:35;8.75;;;4.75;;
44532;SDS011;48673;53.016;-2.258;2022-07-23T14:32:03;5.28;;;3.75;;
44532;SDS011;48673;53.016;-2.258;2022-07-23T14:34:33;5.00;;;3.15;;
44532;SDS011;48673;53.016;-2.258;2022-07-23T14:37:04;5.60;;;3.53;;
44532;SDS011;48673;53.016;-2.258;2022-07-23T14:39:41;6.78;;;4.05;;
44532;SDS011;48673;53.016;-2.258;2022-07-23T14:42:12;5.22;;;3.63;;
44532;SDS011;48673;53.016;-2.258;2022-07-23T14:47:09;6.57;;;3.95;;
44532;SDS011;48673;53.016;-2.258;2022-07-23T14:49:37;7.38;;;3.83;;
44532;SDS011;48673;53.016;-2.258;2022-07-23T14:52:05;5.33;;;4.17;;
44532;SDS011;48673;53.016;-2.258;2022-07-23T14:54:34;7.03;;;3.40;;
44532;SDS011;48673;53.016;-2.258;2022-07-23T14:57:02;5.40;;;4.53;;
44532;SDS011;48673;53.016;-2.258;2022-07-23T14:59:31;5.07;;;3.88;;
44532;SDS011;48673;53.016;-2.258;2022-07-23T15:02:00;7.35;;;4.55;;
44532;SDS011;48673;53.016;-2.258;2022-07-23T15:04:29;6.45;;;3.83;;
44532;SDS011;48673;53.016;-2.258;2022-07-23T15:07:04;8.05;;;4.18;;
44532;SDS011;48673;53.016;-2.258;2022-07-23T15:09:33;5.85;;;3.38;;
44532;SDS011;48673;53.016;-2.258;2022-07-23T15:12:03;7.45;;;4.05;;
44532;SDS011;48673;53.016;-2.258;2022-07-23T15:14:34;6.82;;;3.88;;
44532;SDS011;48673;53.016;-2.258;2022-07-23T15:17:03;8.73;;;3.78;;
44532;SDS011;48673;53.016;-2.258;2022-07-23T15:19:31;5.75;;;3.95;;
44532;SDS011;48673;53.016;-2.258;2022-07-23T15:21:58;7.05;;;4.35;;
44532;SDS011;48673;53.016;-2.258;2022-07-23T15:24:31;6.80;;;4.82;;
44532;SDS011;48673;53.016;-2.258;2022-07-23T15:26:59;5.78;;;4.07;;
44532;SDS011;48673;53.016;-2.258;2022-07-23T15:29:28;5.68;;;3.58;;
44532;SDS011;48673;53.016;-2.258;2022-07-23T15:31:56;7.78;;;4.20;;
44532;SDS011;48673;53.016;-2.258;2022-07-23T15:34:25;4.55;;;3.80;;
44532;SDS011;48673;53.016;-2.258;2022-07-23T15:36:54;6.97;;;3.97;;
44532;SDS011;48673;53.016;-2.258;2022-07-23T15:39:22;9.70;;;4.10;;
44532;SDS011;48673;53.016;-2.258;2022-07-23T15:41:50;6.05;;;4.22;;
44532;SDS011;48673;53.016;-2.258;2022-07-23T15:44:18;7.45;;;4.60;;
44532;SDS011;48673;53.016;-2.258;2022-07-23T15:46:55;7.20;;;3.95;;
44532;SDS011;48673;53.016;-2.258;2022-07-23T15:49:26;9.07;;;3.53;;
44532;SDS011;48673;53.016;-2.258;2022-07-23T15:51:54;4.97;;;3.75;;
44532;SDS011;48673;53.016;-2.258;2022-07-23T15:54:24;8.95;;;3.38;;
44532;SDS011;48673;53.016;-2.258;2022-07-23T15:56:52;8.30;;;3.28;;
44532;SDS011;48673;53.016;-2.258;2022-07-23T15:59:21;4.43;;;4.03;;
44532;SDS011;48673;53.016;-2.258;2022-07-23T16:01:55;6.07;;;3.38;;